createdAt,value
2022-12-12T00:00:55.210Z,100359.44
2022-12-12T00:03:25.468Z,100356.50
2022-12-12T00:05:54.755Z,100343.72
2022-12-12T00:08:22.620Z,100345.44
2022-12-12T00:10:50.443Z,100338.88
2022-12-12T00:13:19.591Z,100344.84
2022-12-12T00:15:47.463Z,100350.09
2022-12-12T00:18:15.327Z,100342.09
2022-12-12T00:20:43.079Z,100340.09
2022-12-12T00:23:10.840Z,100341.75
2022-12-12T00:25:38.589Z,100333.97
2022-12-12T00:28:06.378Z,100342.72
2022-12-12T00:30:35.529Z,100332.97
2022-12-12T00:33:03.313Z,100331.19
2022-12-12T00:35:31.039Z,100333.91
2022-12-12T00:37:58.800Z,100334.63
2022-12-12T00:40:26.548Z,100327.72
2022-12-12T00:42:54.400Z,100327.69
2022-12-12T00:45:22.252Z,100332.97
2022-12-12T00:47:51.423Z,100328.56
2022-12-12T00:50:19.559Z,100332.13
2022-12-12T00:52:47.339Z,100328.69
2022-12-12T00:55:15.784Z,100333.97
2022-12-12T00:57:43.668Z,100332.59
2022-12-12T01:00:15.391Z,100327.09
2022-12-12T01:02:43.238Z,100319.47
2022-12-12T01:05:12.947Z,100312.06
2022-12-12T01:07:41.228Z,100315.38
2022-12-12T01:10:10.430Z,100311.84
2022-12-12T01:12:38.368Z,100322.84
2022-12-12T01:15:08.735Z,100322.53
2022-12-12T01:17:37.857Z,100315.53
2022-12-12T01:20:07.547Z,100314.13
2022-12-12T01:22:37.189Z,100318.56
2022-12-12T01:25:05.347Z,100321.53
2022-12-12T01:27:33.340Z,100321.69
2022-12-12T01:30:02.463Z,100321.88
2022-12-12T01:32:30.671Z,100326.25
2022-12-12T01:34:58.429Z,100325.91
2022-12-12T01:37:26.307Z,100319.75
2022-12-12T01:39:55.576Z,100334.28
2022-12-12T01:42:23.308Z,100332.31
2022-12-12T01:44:53.607Z,100330.69
2022-12-12T01:47:23.619Z,100329.19
2022-12-12T01:49:55.707Z,100336.47
2022-12-12T01:52:26.248Z,100338.78
2022-12-12T01:54:59.674Z,100337.88
2022-12-12T01:57:33.030Z,100351.16
2022-12-12T02:00:05.382Z,100349.44
2022-12-12T02:02:33.510Z,100349.00
2022-12-12T02:05:06.336Z,100348.00
2022-12-12T02:07:35.240Z,100360.69
2022-12-12T02:10:04.779Z,100367.13
2022-12-12T02:12:32.728Z,100370.41
2022-12-12T02:15:00.581Z,100373.03
2022-12-12T02:17:47.942Z,100384.97
2022-12-12T02:20:57.240Z,100384.44
2022-12-12T02:23:57.476Z,100388.53
2022-12-12T02:26:58.908Z,100383.91
2022-12-12T02:30:11.033Z,100388.03
2022-12-12T02:32:59.428Z,100382.56
2022-12-12T02:35:35.064Z,100385.78
2022-12-12T02:38:10.824Z,100379.94
2022-12-12T02:40:46.180Z,100367.41
2022-12-12T02:43:20.344Z,100375.16
2022-12-12T02:45:52.024Z,100371.69
2022-12-12T02:48:30.336Z,100365.25
2022-12-12T02:51:01.894Z,100371.03
2022-12-12T02:53:29.825Z,100370.47
2022-12-12T02:56:06.184Z,100367.75
2022-12-12T02:58:37.228Z,100366.75
2022-12-12T03:01:18.635Z,100377.13
2022-12-12T03:04:13.541Z,100372.53
2022-12-12T03:07:14.040Z,100364.63
2022-12-12T03:10:00.629Z,100360.31
2022-12-12T03:12:39.513Z,100368.06
2022-12-12T03:15:16.069Z,100375.19
2022-12-12T03:17:49.559Z,100367.16
2022-12-12T03:20:23.897Z,100369.22
2022-12-12T03:22:57.245Z,100362.69
2022-12-12T03:25:29.662Z,100367.81
2022-12-12T03:28:03.373Z,100363.38
2022-12-12T03:30:35.761Z,100353.28
2022-12-12T03:33:07.667Z,100348.44
2022-12-12T03:35:41.409Z,100347.28
2022-12-12T03:38:15.485Z,100355.50
2022-12-12T03:40:48.982Z,100356.84
2022-12-12T03:43:20.962Z,100356.13
2022-12-12T03:45:56.750Z,100349.53
2022-12-12T03:48:28.808Z,100350.13
2022-12-12T03:51:03.230Z,100354.63
2022-12-12T03:53:35.469Z,100364.72
2022-12-12T03:56:08.920Z,100360.88
2022-12-12T03:58:43.595Z,100365.16
2022-12-12T04:01:13.889Z,100369.47
2022-12-12T04:03:53.378Z,100364.84
2022-12-12T04:06:31.941Z,100363.19
2022-12-12T04:09:20.381Z,100360.59
2022-12-12T04:12:15.327Z,100357.91
2022-12-12T04:15:01.644Z,100358.41
2022-12-12T04:17:37.478Z,100354.06
2022-12-12T04:20:32.013Z,100357.41
2022-12-12T04:23:19.133Z,100352.97
2022-12-12T04:26:26.641Z,100354.56
2022-12-12T04:29:03.530Z,100356.41
2022-12-12T04:31:35.375Z,100350.91
2022-12-12T04:34:07.105Z,100351.72
2022-12-12T04:36:36.502Z,100357.59
2022-12-12T04:39:08.125Z,100357.91
2022-12-12T04:41:37.992Z,100358.03
2022-12-12T04:44:11.024Z,100353.97
2022-12-12T04:46:39.967Z,100359.84
2022-12-12T04:49:15.251Z,100368.47
2022-12-12T04:51:46.306Z,100367.63
2022-12-12T04:54:23.088Z,100363.41
2022-12-12T04:56:55.192Z,100375.44
2022-12-12T04:59:23.596Z,100377.84
2022-12-12T05:01:56.741Z,100371.44
2022-12-12T05:04:30.224Z,100366.66
2022-12-12T05:07:02.973Z,100356.75
2022-12-12T05:09:32.410Z,100361.16
2022-12-12T05:12:00.207Z,100365.22
2022-12-12T05:14:28.342Z,100367.81
2022-12-12T05:17:02.936Z,100348.78
2022-12-12T05:19:30.728Z,100348.00
2022-12-12T05:21:58.579Z,100342.72
2022-12-12T05:24:30.715Z,100346.78
2022-12-12T05:27:00.587Z,100346.00
2022-12-12T05:29:28.412Z,100342.59
2022-12-12T05:31:56.179Z,100335.28
2022-12-12T05:34:23.912Z,100340.25
2022-12-12T05:36:51.767Z,100350.47
2022-12-12T05:39:19.573Z,100345.28
2022-12-12T05:41:47.369Z,100339.16
2022-12-12T05:44:16.488Z,100344.59
2022-12-12T05:46:44.263Z,100352.63
2022-12-12T05:49:12.105Z,100357.97
2022-12-12T05:51:39.844Z,100355.25
2022-12-12T05:54:07.701Z,100356.69
2022-12-12T05:56:35.542Z,100372.56
2022-12-12T05:59:03.417Z,100376.88
2022-12-12T06:01:32.739Z,100373.41
2022-12-12T06:04:00.601Z,100368.66
2022-12-12T06:06:28.340Z,100358.72
2022-12-12T06:08:56.206Z,100362.03
2022-12-12T06:11:24.124Z,100364.25
2022-12-12T06:13:51.972Z,100368.69
2022-12-12T06:16:20.832Z,100360.09
2022-12-12T06:18:53.730Z,100343.78
2022-12-12T06:21:24.705Z,100341.16
2022-12-12T06:23:52.479Z,100347.38
2022-12-12T06:26:22.468Z,100348.13
2022-12-12T06:28:50.719Z,100347.41
2022-12-12T06:31:19.416Z,100347.47
2022-12-12T06:33:47.347Z,100355.88
2022-12-12T06:36:19.169Z,100356.06
2022-12-12T06:38:46.947Z,100352.50
2022-12-12T06:41:16.462Z,100362.00
2022-12-12T06:43:44.656Z,100359.06
2022-12-12T06:46:17.764Z,100358.56
2022-12-12T06:48:46.272Z,100361.38
2022-12-12T06:51:18.822Z,100362.22
2022-12-12T06:53:47.074Z,100351.13
2022-12-12T06:56:19.713Z,100342.91
2022-12-12T06:58:48.019Z,100351.50
2022-12-12T07:01:18.861Z,100352.56
2022-12-12T07:03:47.194Z,100361.50
2022-12-12T07:06:15.073Z,100356.91
2022-12-12T07:08:44.335Z,100349.31
2022-12-12T07:11:14.652Z,100348.28
2022-12-12T07:13:42.480Z,100334.53
2022-12-12T07:16:10.781Z,100333.47
2022-12-12T07:18:38.715Z,100334.75
2022-12-12T07:21:07.480Z,100318.78
2022-12-12T07:23:35.758Z,100310.25
2022-12-12T07:26:07.436Z,100309.56
2022-12-12T07:28:35.268Z,100311.25
2022-12-12T07:31:07.212Z,100300.59
2022-12-12T07:33:43.009Z,100291.16
2022-12-12T07:36:11.422Z,100306.75
2022-12-12T07:38:39.773Z,100300.84
2022-12-12T07:41:10.779Z,100318.22
2022-12-12T07:43:43.938Z,100318.59
2022-12-12T07:46:15.539Z,100314.03
2022-12-12T07:48:43.669Z,100303.25
2022-12-12T07:51:11.586Z,100292.03
2022-12-12T07:53:39.319Z,100285.91
2022-12-12T07:56:09.946Z,100278.16
2022-12-12T07:58:38.432Z,100293.97
2022-12-12T08:01:14.301Z,100292.97
2022-12-12T08:03:42.497Z,100295.91
2022-12-12T08:06:10.364Z,100294.69
2022-12-12T08:08:38.423Z,100283.50
2022-12-12T08:11:09.150Z,100288.84
2022-12-12T08:13:38.051Z,100280.84
2022-12-12T08:16:07.667Z,100282.44
2022-12-12T08:18:35.931Z,100295.75
2022-12-12T08:21:07.542Z,100314.28
2022-12-12T08:23:35.435Z,100308.34
2022-12-12T08:26:05.527Z,100307.19
2022-12-12T08:28:34.694Z,100299.22
2022-12-12T08:31:02.448Z,100296.44
2022-12-12T08:33:30.337Z,100301.75
2022-12-12T08:35:58.120Z,100305.28
2022-12-12T08:38:26.312Z,100300.19
2022-12-12T08:40:54.119Z,100294.66
2022-12-12T08:43:21.916Z,100285.44
2022-12-12T08:45:51.020Z,100290.63
2022-12-12T08:48:18.794Z,100290.66
2022-12-12T08:50:46.500Z,100293.63
2022-12-12T08:53:14.376Z,100290.63
2022-12-12T08:55:42.424Z,100292.16
2022-12-12T08:58:10.143Z,100286.53
2022-12-12T09:00:37.917Z,100289.44
2022-12-12T09:03:07.192Z,100280.84
2022-12-12T09:05:35.164Z,100261.53
2022-12-12T09:08:03.058Z,100280.91
2022-12-12T09:10:30.856Z,100285.53
2022-12-12T09:12:58.677Z,100280.66
2022-12-12T09:15:26.411Z,100281.44
2022-12-12T09:17:54.258Z,100272.25
2022-12-12T09:20:23.545Z,100276.53
2022-12-12T09:22:51.356Z,100277.50
2022-12-12T09:25:19.253Z,100283.59
2022-12-12T09:27:47.051Z,100269.19
2022-12-12T09:30:15.254Z,100280.50
2022-12-12T09:32:45.246Z,100279.44
2022-12-12T09:35:13.365Z,100290.91
2022-12-12T09:37:42.873Z,100287.06
2022-12-12T09:40:17.580Z,100283.50
2022-12-12T09:42:50.421Z,100295.47
2022-12-12T09:45:20.492Z,100295.97
2022-12-12T09:47:51.884Z,100282.31
2022-12-12T09:50:27.074Z,100283.09
2022-12-12T09:52:59.756Z,100275.09
2022-12-12T09:55:38.618Z,100270.00
2022-12-12T09:58:09.517Z,100275.91
2022-12-12T10:00:43.663Z,100287.13
2022-12-12T10:03:23.340Z,100274.63
2022-12-12T10:06:28.211Z,100282.03
2022-12-12T10:09:00.979Z,100286.38
2022-12-12T10:11:51.217Z,100276.47
2022-12-12T10:14:34.460Z,100276.94
2022-12-12T10:17:04.884Z,100279.44
2022-12-12T10:19:35.267Z,100277.28
2022-12-12T10:22:10.094Z,100271.56
2022-12-12T10:24:47.885Z,100258.66
2022-12-12T10:27:16.237Z,100255.97
2022-12-12T10:29:48.667Z,100246.66
2022-12-12T10:32:31.255Z,100238.75
2022-12-12T10:35:17.763Z,100228.44
2022-12-12T10:38:01.356Z,100242.16
2022-12-12T10:40:43.608Z,100235.75
2022-12-12T10:43:17.784Z,100215.28
2022-12-12T10:45:59.040Z,100208.47
2022-12-12T10:48:29.446Z,100205.09
2022-12-12T10:51:01.842Z,100210.03
2022-12-12T10:53:31.061Z,100196.13
2022-12-12T10:56:05.572Z,100198.38
2022-12-12T10:58:38.778Z,100199.13
2022-12-12T11:01:13.535Z,100207.41
2022-12-12T11:03:45.340Z,100215.59
2022-12-12T11:06:16.616Z,100206.50
2022-12-12T11:08:55.220Z,100194.25
2022-12-12T11:11:25.789Z,100194.19
2022-12-12T11:13:55.357Z,100184.97
2022-12-12T11:16:25.901Z,100178.41
2022-12-12T11:19:07.036Z,100166.91
2022-12-12T11:21:36.856Z,100158.13
2022-12-12T11:24:10.344Z,100157.16
2022-12-12T11:26:46.248Z,100148.38
2022-12-12T11:29:28.388Z,100140.88
2022-12-12T11:31:57.098Z,100138.13
2022-12-12T11:34:27.316Z,100124.88
2022-12-12T11:36:56.584Z,100124.59
2022-12-12T11:39:28.480Z,100126.19
2022-12-12T11:42:02.760Z,100121.69
2022-12-12T11:44:35.547Z,100115.88
2022-12-12T11:47:24.118Z,100119.19
2022-12-12T11:49:54.370Z,100121.41
2022-12-12T11:52:24.357Z,100114.41
2022-12-12T11:54:52.724Z,100110.66
2022-12-12T11:57:36.769Z,100103.25
2022-12-12T12:00:14.871Z,100101.59
2022-12-12T12:03:06.084Z,100087.75
2022-12-12T12:05:44.547Z,100085.03
2022-12-12T12:08:24.826Z,100080.00
2022-12-12T12:11:02.825Z,100075.59
2022-12-12T12:13:57.871Z,100063.03
2022-12-12T12:16:37.406Z,100063.19
2022-12-12T12:19:14.013Z,100058.88
2022-12-12T12:21:56.709Z,100065.03
2022-12-12T12:24:38.380Z,100049.78
2022-12-12T12:27:13.840Z,100058.47
2022-12-12T12:30:00.180Z,100061.44
2022-12-12T12:32:40.935Z,100067.31
2022-12-12T12:35:21.269Z,100058.41
2022-12-12T12:37:56.297Z,100060.03
2022-12-12T12:40:34.725Z,100052.78
2022-12-12T12:43:20.347Z,100046.25
2022-12-12T12:45:54.057Z,100054.69
2022-12-12T12:48:28.950Z,100048.06
2022-12-12T12:51:05.448Z,100065.75
2022-12-12T12:53:37.829Z,100058.59
2022-12-12T12:56:12.936Z,100058.81
2022-12-12T12:58:45.843Z,100063.78
2022-12-12T13:01:19.858Z,100055.16
2022-12-12T13:03:55.629Z,100067.63
2022-12-12T13:06:37.357Z,100065.53
2022-12-12T13:09:17.177Z,100051.41
2022-12-12T13:11:49.308Z,100056.88
2022-12-12T13:14:29.791Z,100054.31
2022-12-12T13:17:06.391Z,100057.00
2022-12-12T13:19:39.259Z,100043.47
2022-12-12T13:22:14.989Z,100043.16
2022-12-12T13:24:52.500Z,100030.84
2022-12-12T13:27:28.682Z,100033.34
2022-12-12T13:30:03.958Z,100029.53
2022-12-12T13:33:07.261Z,100021.56
2022-12-12T13:35:41.060Z,100017.91
2022-12-12T13:38:19.076Z,100022.97
2022-12-12T13:40:57.012Z,100020.22
2022-12-12T13:43:31.030Z,100010.53
2022-12-12T13:45:58.925Z,100007.34
2022-12-12T13:48:49.300Z,99999.50
2022-12-12T13:51:38.601Z,99996.59
2022-12-12T13:54:51.341Z,99996.28
2022-12-12T13:57:26.136Z,99986.47
2022-12-12T14:00:21.701Z,99982.03
2022-12-12T14:03:24.071Z,99973.34
2022-12-12T14:05:54.356Z,99979.41
2022-12-12T14:08:29.554Z,99970.59
2022-12-12T14:11:01.544Z,99973.75
2022-12-12T14:13:36.220Z,99968.63
2022-12-12T14:16:07.724Z,99969.78
2022-12-12T14:18:40.236Z,99972.66
2022-12-12T14:21:12.306Z,99970.06
2022-12-12T14:23:42.688Z,99965.69
2022-12-12T14:26:50.889Z,99971.28
2022-12-12T14:29:29.867Z,99966.63
2022-12-12T14:32:17.647Z,99956.66
2022-12-12T14:34:58.149Z,99954.28
2022-12-12T14:37:40.037Z,99955.00
2022-12-12T14:40:20.556Z,99951.00
2022-12-12T14:43:18.965Z,99943.38
2022-12-12T14:45:53.695Z,99942.28
2022-12-12T14:48:24.473Z,99939.44
2022-12-12T14:50:56.096Z,99938.25
2022-12-12T14:53:28.826Z,99936.84
2022-12-12T14:55:59.202Z,99931.09
2022-12-12T14:58:29.885Z,99934.72
2022-12-12T15:01:00.177Z,99924.41
2022-12-12T15:03:32.775Z,99917.78
2022-12-12T15:06:21.265Z,99911.91
2022-12-12T15:08:50.688Z,99910.41
2022-12-12T15:11:21.489Z,99911.19
2022-12-12T15:13:54.905Z,99912.31
2022-12-12T15:16:30.940Z,99906.00
2022-12-12T15:19:00.985Z,99904.09
2022-12-12T15:21:32.259Z,99900.91
2022-12-12T15:24:01.676Z,99900.22
2022-12-12T15:26:30.149Z,99900.72
2022-12-12T15:28:58.607Z,99905.41
2022-12-12T15:31:26.547Z,99893.84
2022-12-12T15:33:54.507Z,99897.28
2022-12-12T15:36:27.710Z,99893.97
2022-12-12T15:39:15.568Z,99888.94
2022-12-12T15:41:44.133Z,99884.03
2022-12-12T15:44:18.003Z,99885.59
2022-12-12T15:46:48.662Z,99883.28
2022-12-12T15:49:39.460Z,99878.16
2022-12-12T15:52:19.237Z,99875.88
2022-12-12T15:54:53.525Z,99869.09
2022-12-12T15:57:24.082Z,99858.22
2022-12-12T15:59:58.950Z,99870.06
2022-12-12T16:02:29.226Z,99866.75
2022-12-12T16:05:01.760Z,99873.31
2022-12-12T16:07:30.220Z,99873.88
2022-12-12T16:10:01.531Z,99871.25
2022-12-12T16:12:58.675Z,99870.81
2022-12-12T16:15:37.816Z,99871.63
2022-12-12T16:18:08.529Z,99868.28
2022-12-12T16:20:36.560Z,99873.25
2022-12-12T16:23:22.779Z,99869.81
2022-12-12T16:25:52.006Z,99869.16
2022-12-12T16:28:25.571Z,99867.59
2022-12-12T16:30:59.382Z,99866.63
2022-12-12T16:33:33.090Z,99865.09
2022-12-12T16:36:03.006Z,99864.38
2022-12-12T16:38:31.943Z,99861.28
2022-12-12T16:41:07.943Z,99869.25
2022-12-12T16:43:36.053Z,99870.22
2022-12-12T16:46:03.888Z,99871.06
2022-12-12T16:48:34.424Z,99867.53
2022-12-12T16:51:04.639Z,99872.94
2022-12-12T16:53:33.094Z,99866.31
2022-12-12T16:56:02.585Z,99867.25
2022-12-12T16:58:30.396Z,99866.31
2022-12-12T17:00:59.991Z,99858.31
2022-12-12T17:03:28.067Z,99867.06
2022-12-12T17:05:55.792Z,99856.81
2022-12-12T17:08:23.959Z,99865.50
2022-12-12T17:10:53.445Z,99869.88
2022-12-12T17:13:45.338Z,99864.47
2022-12-12T17:16:13.293Z,99864.44
2022-12-12T17:18:41.333Z,99864.47
2022-12-12T17:21:09.200Z,99857.06
2022-12-12T17:23:37.008Z,99859.03
2022-12-12T17:26:05.336Z,99855.38
2022-12-12T17:28:34.579Z,99858.44
2022-12-12T17:31:07.863Z,99849.66
2022-12-12T17:33:45.781Z,99849.59
2022-12-12T17:36:17.499Z,99850.34
2022-12-12T17:38:45.412Z,99851.34
2022-12-12T17:41:13.443Z,99843.56
2022-12-12T17:43:42.399Z,99852.09
2022-12-12T17:46:15.101Z,99837.56
2022-12-12T17:48:45.886Z,99841.19
2022-12-12T17:51:15.629Z,99843.75
2022-12-12T17:53:43.544Z,99845.28
2022-12-12T17:56:17.749Z,99844.13
2022-12-12T17:58:47.736Z,99842.88
2022-12-12T18:01:20.755Z,99837.63
2022-12-12T18:03:49.321Z,99842.97
2022-12-12T18:06:18.681Z,99835.81
2022-12-12T18:08:47.380Z,99832.22
2022-12-12T18:11:17.097Z,99826.91
2022-12-12T18:13:45.699Z,99825.94
2022-12-12T18:16:14.221Z,99822.84
2022-12-12T18:18:43.835Z,99831.81
2022-12-12T18:24:05.892Z,99827.44
2022-12-12T18:26:33.911Z,99820.38
2022-12-12T18:29:03.535Z,99820.84
2022-12-12T18:31:32.469Z,99822.09
2022-12-12T18:34:02.283Z,99823.28
2022-12-12T18:36:32.040Z,99821.41
2022-12-12T18:39:01.632Z,99825.19
2022-12-12T18:41:31.611Z,99824.41
2022-12-12T18:43:59.856Z,99822.94
2022-12-12T18:46:28.358Z,99827.97
2022-12-12T18:48:56.345Z,99828.66
2022-12-12T18:51:27.873Z,99830.97
2022-12-12T18:54:09.433Z,99836.84
2022-12-12T18:56:41.548Z,99823.41
2022-12-12T18:59:10.119Z,99826.38
2022-12-12T19:01:39.549Z,99821.41
2022-12-12T19:04:12.504Z,99831.94
2022-12-12T19:06:44.521Z,99829.84
2022-12-12T19:09:15.346Z,99829.91
2022-12-12T19:11:43.995Z,99837.16
2022-12-12T19:14:14.820Z,99836.28
2022-12-12T19:16:43.615Z,99836.78
2022-12-12T19:19:12.228Z,99830.47
2022-12-12T19:21:40.719Z,99831.94
2022-12-12T19:24:12.329Z,99827.91
2022-12-12T19:26:41.677Z,99832.22
2022-12-12T19:29:12.238Z,99837.47
2022-12-12T19:31:40.342Z,99843.28
2022-12-12T19:34:11.689Z,99834.59
2022-12-12T19:36:39.510Z,99836.88
2022-12-12T19:39:09.658Z,99850.34
2022-12-12T19:41:37.681Z,99853.22
2022-12-12T19:44:08.718Z,99851.13
2022-12-12T19:46:48.163Z,99859.59
2022-12-12T19:49:17.442Z,99865.22
2022-12-12T19:51:46.062Z,99864.19
2022-12-12T19:54:17.165Z,99864.00
2022-12-12T19:56:45.867Z,99863.16
2022-12-12T19:59:15.525Z,99871.13
2022-12-12T20:01:43.939Z,99866.78
2022-12-12T20:04:16.912Z,99871.06
2022-12-12T20:06:46.314Z,99864.03
2022-12-12T20:09:18.013Z,99854.66
2022-12-12T20:11:45.925Z,99848.75
2022-12-12T20:14:16.130Z,99856.28
2022-12-12T20:16:44.352Z,99850.38
2022-12-12T20:19:13.577Z,99853.31
2022-12-12T20:22:00.765Z,99859.13
2022-12-12T20:24:32.106Z,99851.81
2022-12-12T20:27:00.717Z,99845.00
2022-12-12T20:29:28.772Z,99849.25
2022-12-12T20:31:57.037Z,99848.22
2022-12-12T20:34:25.439Z,99847.84
2022-12-12T20:36:55.459Z,99852.53
2022-12-12T20:39:25.147Z,99845.63
2022-12-12T20:41:56.569Z,99856.44
2022-12-12T20:44:25.656Z,99852.84
2022-12-12T20:46:54.267Z,99855.47
2022-12-12T20:49:24.572Z,99856.16
2022-12-12T20:51:55.871Z,99850.03
2022-12-12T20:54:24.932Z,99858.78
2022-12-12T20:56:55.272Z,99858.84
2022-12-12T20:59:23.759Z,99856.81
2022-12-12T21:01:51.969Z,99857.34
2022-12-12T21:04:20.016Z,99853.16
2022-12-12T21:06:49.715Z,99856.59
2022-12-12T21:09:24.543Z,99865.13
2022-12-12T21:11:56.108Z,99857.66
2022-12-12T21:14:24.219Z,99856.16
2022-12-12T21:16:52.363Z,99859.59
2022-12-12T21:19:22.914Z,99860.28
2022-12-12T21:21:51.443Z,99869.13
2022-12-12T21:24:19.662Z,99870.69
2022-12-12T21:26:48.532Z,99872.78
2022-12-12T21:29:17.933Z,99879.22
2022-12-12T21:31:51.698Z,99875.25
2022-12-12T21:34:20.792Z,99873.59
2022-12-12T21:36:52.343Z,99874.81
2022-12-12T21:39:20.587Z,99879.50
2022-12-12T21:41:48.336Z,99879.31
2022-12-12T21:44:17.529Z,99882.59
2022-12-12T21:46:45.300Z,99875.50
2022-12-12T21:49:27.527Z,99866.38
2022-12-12T21:51:57.258Z,99877.25
2022-12-12T21:54:25.626Z,99870.16
2022-12-12T21:56:53.834Z,99875.63
2022-12-12T21:59:24.483Z,99881.00
2022-12-12T22:01:54.094Z,99878.94
2022-12-12T22:04:22.097Z,99881.75
2022-12-12T22:06:49.872Z,99880.22
2022-12-12T22:09:17.984Z,99864.16
2022-12-12T22:11:48.483Z,99866.78
2022-12-12T22:14:22.172Z,99850.25
2022-12-12T22:16:51.454Z,99859.28
2022-12-12T22:19:19.416Z,99864.44
2022-12-12T22:21:48.262Z,99854.63
2022-12-12T22:24:17.002Z,99856.28
2022-12-12T22:26:46.454Z,99861.91
2022-12-12T22:29:16.445Z,99862.34
2022-12-12T22:31:45.193Z,99868.59
2022-12-12T22:34:16.506Z,99866.16
2022-12-12T22:36:45.567Z,99865.34
2022-12-12T22:39:15.589Z,99871.03
2022-12-12T22:41:43.453Z,99868.84
2022-12-12T22:44:14.719Z,99869.50
2022-12-12T22:46:44.427Z,99874.63
2022-12-12T22:49:15.564Z,99865.00
2022-12-12T22:51:44.534Z,99876.81
2022-12-12T22:54:12.765Z,99883.03
2022-12-12T22:56:41.614Z,99875.66
2022-12-12T22:59:11.456Z,99878.72
2022-12-12T23:01:39.320Z,99874.66
2022-12-12T23:04:07.939Z,99862.16
2022-12-12T23:06:37.344Z,99863.09
2022-12-12T23:09:07.344Z,99869.09
2022-12-12T23:11:36.718Z,99862.78
2022-12-12T23:14:06.172Z,99857.03
2022-12-12T23:16:35.342Z,99864.94
2022-12-12T23:19:04.372Z,99865.44
2022-12-12T23:21:32.908Z,99859.91
2022-12-12T23:24:02.151Z,99867.16
2022-12-12T23:26:31.823Z,99872.16
2022-12-12T23:29:00.167Z,99865.34
2022-12-12T23:31:30.096Z,99864.50
2022-12-12T23:34:00.509Z,99859.50
2022-12-12T23:36:29.801Z,99862.44
2022-12-12T23:38:58.826Z,99871.19
2022-12-12T23:41:28.886Z,99868.28
2022-12-12T23:43:57.134Z,99863.09
2022-12-12T23:46:32.387Z,99871.69
2022-12-12T23:49:02.789Z,99865.88
2022-12-12T23:51:33.182Z,99853.56
2022-12-12T23:54:02.426Z,99862.00
2022-12-12T23:56:32.071Z,99869.41
2022-12-12T23:59:00.913Z,99867.59
